Star Kvarven — LAJK7 — position and weather

sailwx.info

Track history (hours):
 
Tides and Currents Weather Stations Pressure Air Temp Water Temp Dewpoint Dewpoint Depression Visibility Wind Speed Wind Dir Waves Ship Positions

Star Kvarven

Last reported at 2018-Feb-14 14:51 UTC. Time now 2018-Feb-22 10:31 UTC.
Position N 25°07' E 122°31'.

Length 208 m; draft 8 m.

Type: Cargo ship. MMSI: 257661000.

Date/timePositionNaut miles runAvg speedWind from/ knotsBaromVisibWave heightAir tempDewpointWater temp
2018-Feb-14 14:51N 25°07' E 122°31'813.2
2018-Feb-14 14:15N 24°59' E 122°29'313.7
2018-Feb-14 14:00N 24°56' E 122°27'714.0
2018-Feb-14 13:31N 24°49' E 122°25'714.3
2018-Feb-14 13:01N 24°43' E 122°23'713.9
2018-Feb-14 12:30N 24°36' E 122°20'713.7
2018-Feb-14 12:00N 24°29' E 122°18'713.3
2018-Feb-14 11:30N 24°24' E 122°14'613.0
2018-Feb-14 11:00N 24°17' E 122°13'612.9
2018-Feb-14 10:30N 24°11' E 122°11'612.5
2018-Feb-14 09:59N 24°05' E 122°09'11711.6
2018-Feb-13 23:56N 22°14' E 121°29'512.0
2018-Feb-13 23:29N 22°10' E 121°26'611.9
2018-Feb-13 22:57N 22°03' E 121°24'711.5
2018-Feb-13 22:22N 21°57' E 121°22'304 8.9
2018-Feb-12 12:13N 17°04' E 119°57'2 7.8
2018-Feb-12 12:00N 17°02' E 119°56'5 8.0
2018-Feb-12 11:23N 16°57' E 119°55'3 8.0
2018-Feb-12 11:00N 16°55' E 119°54'5 8.4
2018-Feb-12 10:27N 16°50' E 119°53'4 8.3
2018-Feb-12 10:00N 16°46' E 119°51'4 8.6
2018-Feb-12 09:30N 16°42' E 119°50'4 8.8
2018-Feb-12 09:00N 16°38' E 119°49'4 8.1
2018-Feb-12 08:30N 16°34' E 119°48'4 8.3
2018-Feb-12 07:58N 16°30' E 119°47'4 8.1
2018-Feb-12 07:30N 16°26' E 119°46'4 8.1
2018-Feb-12 07:00N 16°22' E 119°45'4 7.6
2018-Feb-12 06:30N 16°19' E 119°44'4 8.0
2018-Feb-12 05:59N 16°15' E 119°42'5 8.2
2018-Feb-12 05:25N 16°10' E 119°41'  
2018-Feb-05 04:30S 06°58' E 112°42'713.4
2018-Feb-05 03:58S 07°04' E 112°40'511.5
2018-Feb-05 03:30S 07°10' E 112°40'  
Track history (hours):
 
Tides and Currents Weather Stations Pressure Air Temp Water Temp Dewpoint Dewpoint Depression Visibility Wind Speed Wind Dir Waves Ship Positions

Star Kvarven

Last reported at 2018-Feb-14 14:51 UTC. Time now 2018-Feb-22 10:31 UTC.
Position N 25°07' E 122°31'.

Length 208 m; draft 8 m.

Type: Cargo ship. MMSI: 257661000.

Date/timePositionNaut miles runAvg speedWind from/ knotsBaromVisibWave heightAir tempDewpointWater temp
2018-Feb-14 14:51N 25°07' E 122°31'813.2
2018-Feb-14 14:15N 24°59' E 122°29'313.7
2018-Feb-14 14:00N 24°56' E 122°27'714.0
2018-Feb-14 13:31N 24°49' E 122°25'714.3
2018-Feb-14 13:01N 24°43' E 122°23'713.9
2018-Feb-14 12:30N 24°36' E 122°20'713.7
2018-Feb-14 12:00N 24°29' E 122°18'713.3
2018-Feb-14 11:30N 24°24' E 122°14'613.0
2018-Feb-14 11:00N 24°17' E 122°13'612.9
2018-Feb-14 10:30N 24°11' E 122°11'612.5
2018-Feb-14 09:59N 24°05' E 122°09'11711.6
2018-Feb-13 23:56N 22°14' E 121°29'512.0
2018-Feb-13 23:29N 22°10' E 121°26'611.9
2018-Feb-13 22:57N 22°03' E 121°24'711.5
2018-Feb-13 22:22N 21°57' E 121°22'304 8.9
2018-Feb-12 12:13N 17°04' E 119°57'2 7.8
2018-Feb-12 12:00N 17°02' E 119°56'5 8.0
2018-Feb-12 11:23N 16°57' E 119°55'3 8.0
2018-Feb-12 11:00N 16°55' E 119°54'5 8.4
2018-Feb-12 10:27N 16°50' E 119°53'4 8.3
2018-Feb-12 10:00N 16°46' E 119°51'4 8.6
2018-Feb-12 09:30N 16°42' E 119°50'4 8.8
2018-Feb-12 09:00N 16°38' E 119°49'4 8.1
2018-Feb-12 08:30N 16°34' E 119°48'4 8.3
2018-Feb-12 07:58N 16°30' E 119°47'4 8.1
2018-Feb-12 07:30N 16°26' E 119°46'4 8.1
2018-Feb-12 07:00N 16°22' E 119°45'4 7.6
2018-Feb-12 06:30N 16°19' E 119°44'4 8.0
2018-Feb-12 05:59N 16°15' E 119°42'5 8.2
2018-Feb-12 05:25N 16°10' E 119°41'  
2018-Feb-05 04:30S 06°58' E 112°42'713.4
2018-Feb-05 03:58S 07°04' E 112°40'511.5
2018-Feb-05 03:30S 07°10' E 112°40'  

Dump ship's entire track history